Time;durP1;ratioP1;P1;durP2;ratioP2;P2;SDS_P1;SDS_P2;PMS_P1;PMS_P2;Temp;Humidity;BMP_temperature;BMP_pressure;BME280_temperature;BME280_humidity;BME280_pressure;Samples;Min_cycle;Max_cycle;Signal;HPM_P1;HPM_P2
2023/11/18 00:01:33;;;;;;;16.60;13.18;;;;;;;4.06;100.00;102364.81;5151989;27;20047;-35
2023/11/18 00:03:58;;;;;;;16.73;14.93;;;;;;;4.02;100.00;102366.94;5151027;27;20037;-35
2023/11/18 00:06:23;;;;;;;16.25;13.70;;;;;;;4.05;100.00;102376.47;5151407;27;20039;-34
2023/11/18 00:08:49;;;;;;;14.73;13.13;;;;;;;4.06;100.00;102370.16;5139634;27;20496;-34
2023/11/18 00:11:15;;;;;;;19.15;15.25;;;;;;;4.03;100.00;102379.31;5137170;27;20482;-35
2023/11/18 00:13:42;;;;;;;20.98;17.30;;;;;;;3.93;100.00;102372.34;5137352;27;20038;-34
2023/11/18 00:16:11;;;;;;;19.80;16.27;;;;;;;3.99;100.00;102377.09;5137283;27;20111;-34
2023/11/18 00:18:40;;;;;;;18.33;14.68;;;;;;;3.99;100.00;102371.72;5121539;27;20026;-35
2023/11/18 00:21:07;;;;;;;17.40;15.52;;;;;;;3.85;100.00;102373.91;5116456;28;20039;-35
2023/11/18 00:23:32;;;;;;;17.45;14.95;;;;;;;3.83;100.00;102367.88;5117169;28;20031;-35
2023/11/18 00:25:58;;;;;;;17.70;14.27;;;;;;;3.79;100.00;102362.97;5117453;28;20484;-35
2023/11/18 00:28:23;;;;;;;17.97;15.47;;;;;;;3.81;100.00;102364.53;5117116;28;20385;-35
2023/11/18 00:30:48;;;;;;;19.40;15.37;;;;;;;3.72;100.00;102368.09;5115307;28;20027;-35
2023/11/18 00:33:14;;;;;;;19.13;15.53;;;;;;;3.72;100.00;102362.75;5116142;28;20055;-35
2023/11/18 00:35:39;;;;;;;18.63;15.97;;;;;;;3.59;100.00;102365.75;5116925;28;20406;-35
2023/11/18 00:38:04;;;;;;;19.17;16.30;;;;;;;3.66;100.00;102363.34;5116898;28;20609;-35
2023/11/18 00:40:30;;;;;;;18.43;15.00;;;;;;;3.61;100.00;102357.56;5116674;28;20506;-35
2023/11/18 00:42:56;;;;;;;18.80;15.23;;;;;;;3.58;100.00;102372.09;5116302;28;20046;-35
2023/11/18 00:45:21;;;;;;;21.42;15.05;;;;;;;3.58;100.00;102365.91;5116297;28;20023;-35
2023/11/18 00:47:47;;;;;;;19.75;13.55;;;;;;;3.53;100.00;102358.31;5116238;28;20019;-35
2023/11/18 00:50:12;;;;;;;20.27;17.00;;;;;;;3.53;100.00;102363.69;5116728;28;20036;-35
2023/11/18 00:52:40;;;;;;;19.80;14.65;;;;;;;3.51;100.00;102356.78;5116056;28;20039;-35
2023/11/18 00:55:08;;;;;;;16.38;13.05;;;;;;;3.58;100.00;102369.44;5115773;28;20038;-35
2023/11/18 00:57:34;;;;;;;20.05;14.88;;;;;;;3.54;100.00;102375.22;5115869;28;20108;-35
2023/11/18 00:59:59;;;;;;;18.17;15.15;;;;;;;3.55;100.00;102367.03;5116228;28;20035;-35
2023/11/18 01:02:25;;;;;;;15.60;13.50;;;;;;;3.62;100.00;102372.66;5116151;28;20028;-35
2023/11/18 01:04:50;;;;;;;16.37;14.50;;;;;;;3.58;100.00;102364.06;5115662;28;20019;-35
2023/11/18 01:07:16;;;;;;;18.60;14.50;;;;;;;3.55;100.00;102368.88;5115730;28;20080;-35
2023/11/18 01:09:41;;;;;;;17.48;14.13;;;;;;;3.47;100.00;102383.00;5116138;28;20111;-35
2023/11/18 01:12:09;;;;;;;20.40;16.13;;;;;;;3.33;100.00;102384.31;5115712;28;20024;-35
2023/11/18 01:14:38;;;;;;;18.85;16.05;;;;;;;3.38;100.00;102385.69;5115306;28;20031;-35
2023/11/18 01:17:09;;;;;;;18.25;14.20;;;;;;;3.38;100.00;102381.19;5115525;28;20023;-35
2023/11/18 01:19:34;;;;;;;16.30;14.25;;;;;;;3.41;100.00;102388.06;5113819;28;20028;-35
2023/11/18 01:22:00;;;;;;;19.52;15.40;;;;;;;3.47;100.00;102390.19;5116096;28;20047;-35
2023/11/18 01:24:26;;;;;;;21.67;17.23;;;;;;;3.45;100.00;102387.63;5115142;28;20463;-35
2023/11/18 01:26:51;;;;;;;20.85;14.50;;;;;;;3.53;100.00;102387.75;5115451;27;20036;-35
2023/11/18 01:29:17;;;;;;;16.57;13.73;;;;;;;3.57;100.00;102385.63;5115369;28;20027;-35
2023/11/18 01:31:42;;;;;;;16.88;14.13;;;;;;;3.60;100.00;102379.97;5115066;28;20112;-35
2023/11/18 01:34:08;;;;;;;16.57;13.87;;;;;;;3.71;100.00;102378.94;5115854;28;20165;-35
2023/11/18 01:36:33;;;;;;;18.43;14.57;;;;;;;3.64;100.00;102369.81;5115138;28;20047;-35
2023/11/18 01:39:00;;;;;;;18.80;15.00;;;;;;;3.71;100.00;102376.25;5115154;28;20730;-35
2023/11/18 01:41:25;;;;;;;15.88;13.40;;;;;;;3.62;100.00;102353.94;5115937;28;20019;-35
2023/11/18 01:43:51;;;;;;;18.17;15.07;;;;;;;3.69;100.00;102379.09;5114726;28;20473;-35
2023/11/18 01:46:18;;;;;;;16.53;14.40;;;;;;;3.73;100.00;102375.13;5115113;28;20031;-35
2023/11/18 01:48:43;;;;;;;17.50;14.70;;;;;;;3.63;100.00;102370.81;5114953;28;20027;-35
2023/11/18 01:51:12;;;;;;;20.20;15.93;;;;;;;3.61;100.00;102363.78;5114633;28;20050;-35
2023/11/18 01:53:39;;;;;;;19.77;15.50;;;;;;;3.71;100.00;102378.94;5114867;28;20107;-35
2023/11/18 01:56:06;;;;;;;16.65;13.23;;;;;;;3.83;100.00;102378.59;5115044;28;20067;-35
2023/11/18 01:58:32;;;;;;;16.23;13.55;;;;;;;3.80;100.00;102386.06;5114773;28;20024;-35
2023/11/18 02:00:58;;;;;;;20.90;14.82;;;;;;;3.83;100.00;102389.28;5114696;28;20460;-35
2023/11/18 02:03:25;;;;;;;17.45;13.43;;;;;;;3.84;100.00;102374.06;5114675;28;20041;-35
2023/11/18 02:05:51;;;;;;;16.08;13.70;;;;;;;3.88;100.00;102372.78;5114708;28;20031;-35
2023/11/18 02:08:18;;;;;;;18.92;13.65;;;;;;;3.99;100.00;102377.09;5114673;28;20168;-35
2023/11/18 02:11:11;;;;;;;19.80;15.35;;;;;;;3.97;100.00;102379.94;5115107;28;20516;-35
2023/11/18 02:13:40;;;;;;;14.75;12.75;;;;;;;3.99;100.00;102374.41;5113663;28;20081;-35
2023/11/18 02:16:08;;;;;;;19.40;14.50;;;;;;;3.92;100.00;102374.19;5114654;28;20047;-35
2023/11/18 02:18:35;;;;;;;17.67;14.00;;;;;;;4.04;100.00;102377.47;5114382;28;20066;-35
2023/11/18 02:21:05;;;;;;;18.80;15.15;;;;;;;3.99;100.00;102377.09;5114964;28;20027;-35
2023/11/18 02:23:30;;;;;;;18.77;14.88;;;;;;;4.00;100.00;102384.13;5114017;28;20030;-36
2023/11/18 02:25:56;;;;;;;17.87;15.10;;;;;;;3.93;100.00;102367.00;5114350;28;20028;-35
2023/11/18 02:28:21;;;;;;;20.13;15.40;;;;;;;3.93;100.00;102369.66;5114036;28;20265;-35
2023/11/18 02:30:49;;;;;;;21.67;17.27;;;;;;;3.91;100.00;102393.06;5113739;28;20161;-35
2023/11/18 02:33:25;;;;;;;21.33;17.27;;;;;;;3.92;100.00;102392.06;5112937;28;20417;-35
2023/11/18 02:35:56;;;;;;;22.95;18.80;;;;;;;3.92;100.00;102386.72;5114687;28;20028;-35
2023/11/18 02:38:35;;;;;;;22.90;18.80;;;;;;;3.93;100.00;102378.53;5114449;28;20477;-35
2023/11/18 02:41:08;;;;;;;21.27;16.88;;;;;;;4.03;100.00;102367.78;5115010;28;20379;-35
2023/11/18 02:43:35;;;;;;;20.98;17.85;;;;;;;3.97;100.00;102366.53;5114367;28;20096;-35
2023/11/18 02:46:03;;;;;;;26.38;19.23;;;;;;;3.94;100.00;102358.81;5114003;28;20494;-35
2023/11/18 02:48:28;;;;;;;22.33;17.83;;;;;;;4.06;100.00;102376.34;5113727;28;20510;-35
2023/11/18 02:50:54;;;;;;;24.55;18.98;;;;;;;4.04;100.00;102370.28;5113445;28;20028;-35
2023/11/18 02:53:19;;;;;;;22.13;16.75;;;;;;;4.12;100.00;102357.00;5113911;28;20031;-35
2023/11/18 02:55:45;;;;;;;19.30;15.57;;;;;;;4.12;100.00;102340.09;5113484;28;20020;-35
2023/11/18 02:58:11;;;;;;;19.95;17.40;;;;;;;4.09;100.00;102337.72;5113953;28;20057;-35
2023/11/18 03:00:38;;;;;;;26.40;18.77;;;;;;;4.05;100.00;102315.78;5114811;28;20028;-35
2023/11/18 03:03:03;;;;;;;19.73;15.98;;;;;;;4.13;100.00;102323.03;5113882;28;20024;-35
2023/11/18 03:05:30;;;;;;;19.30;16.60;;;;;;;4.15;100.00;102337.13;5114450;28;20030;-35
2023/11/18 03:07:57;;;;;;;20.52;18.10;;;;;;;3.93;100.00;102306.28;5113805;28;20035;-35
2023/11/18 03:10:23;;;;;;;26.48;18.77;;;;;;;4.10;100.00;102337.59;5113824;28;20032;-35
2023/11/18 03:12:53;;;;;;;21.48;16.88;;;;;;;4.09;100.00;102319.81;5113836;28;20031;-35
2023/11/18 03:15:19;;;;;;;21.23;17.40;;;;;;;4.14;100.00;102330.91;5114333;28;20028;-35
2023/11/18 03:17:45;;;;;;;16.65;14.85;;;;;;;4.17;100.00;102327.09;5114165;28;20096;-35
2023/11/18 03:20:14;;;;;;;23.00;18.75;;;;;;;4.01;100.00;102337.66;5113773;28;20058;-35
2023/11/18 03:22:40;;;;;;;22.50;17.88;;;;;;;4.12;100.00;102346.28;5113641;28;20095;-35
2023/11/18 03:25:07;;;;;;;;;;;;;;;4.15;100.00;102350.50;5114401;28;20023;-35
2023/11/18 03:27:33;;;;;;;19.15;15.55;;;;;;;4.17;100.00;102350.34;5113661;28;19908;-35
2023/11/18 03:29:58;;;;;;;17.90;15.73;;;;;;;4.21;100.00;102338.34;5114185;28;20035;-35
2023/11/18 03:32:23;;;;;;;17.97;15.63;;;;;;;4.26;100.00;102341.41;5114448;28;20273;-35
2023/11/18 03:34:49;;;;;;;18.67;15.97;;;;;;;4.31;100.00;102342.63;5113621;28;20024;-35
2023/11/18 03:37:14;;;;;;;19.07;16.43;;;;;;;4.22;100.00;102324.78;5113436;28;20080;-35
2023/11/18 03:39:39;;;;;;;24.70;17.67;;;;;;;4.25;100.00;102335.22;5113541;28;20149;-35
2023/11/18 03:42:05;;;;;;;18.40;15.50;;;;;;;4.31;100.00;102337.28;5113770;28;20038;-35
2023/11/18 03:44:30;;;;;;;20.73;17.03;;;;;;;4.16;100.00;102317.38;5117526;28;20019;-35
2023/11/18 03:46:55;;;;;;;21.23;17.93;;;;;;;4.22;100.00;102313.25;5117078;28;20028;-35
2023/11/18 03:49:21;;;;;;;15.63;13.87;;;;;;;4.29;100.00;102309.78;5117082;28;20039;-35
2023/11/18 03:51:46;;;;;;;17.10;15.03;;;;;;;4.24;100.00;102304.03;5117067;28;20051;-35
2023/11/18 03:54:12;;;;;;;22.63;17.63;;;;;;;4.20;100.00;102294.66;5117508;28;20024;-35
2023/11/18 03:56:38;;;;;;;25.55;19.70;;;;;;;4.18;100.00;102285.09;5117251;28;20094;-35
2023/11/18 03:59:04;;;;;;;26.38;18.33;;;;;;;4.19;100.00;102282.25;5117425;28;20080;-35
2023/11/18 04:01:29;;;;;;;17.60;15.73;;;;;;;4.12;100.00;102265.97;5117383;28;20024;-35
2023/11/18 04:03:55;;;;;;;22.98;17.67;;;;;;;4.17;100.00;102273.53;5117589;28;20049;-35
2023/11/18 04:06:21;;;;;;;20.75;16.92;;;;;;;4.14;100.00;102250.56;5117046;28;20032;-35
2023/11/18 04:08:48;;;;;;;21.35;17.10;;;;;;;4.13;100.00;102245.38;5116922;28;20383;-35
2023/11/18 04:11:14;;;;;;;;;;;;;;;4.20;100.00;102254.50;5117374;28;20034;-35
2023/11/18 04:13:43;;;;;;;22.75;16.80;;;;;;;4.13;100.00;102250.75;5116857;28;19907;-35
2023/11/18 04:16:16;;;;;;;20.92;16.73;;;;;;;4.15;100.00;102254.13;5117616;28;20032;-35
2023/11/18 04:18:42;;;;;;;21.65;17.02;;;;;;;4.15;100.00;102262.16;5116432;28;20024;-35
2023/11/18 04:21:09;;;;;;;21.02;17.00;;;;;;;4.18;100.00;102263.66;5117084;28;20023;-35
2023/11/18 04:23:38;;;;;;;22.50;18.25;;;;;;;4.17;100.00;102262.84;5116353;28;20038;-35
2023/11/18 04:26:07;;;;;;;22.75;17.77;;;;;;;4.20;100.00;102253.63;5116753;28;20024;-35
2023/11/18 04:28:36;;;;;;;23.52;18.70;;;;;;;4.17;100.00;102256.63;5116558;28;20028;-35
2023/11/18 04:31:02;;;;;;;20.67;17.52;;;;;;;4.18;100.00;102258.31;5116849;28;20024;-35
2023/11/18 04:33:29;;;;;;;21.20;18.00;;;;;;;4.14;100.00;102242.53;5116416;28;20038;-35
2023/11/18 04:35:57;;;;;;;21.67;17.83;;;;;;;4.17;100.00;102241.41;5116965;28;20031;-35
2023/11/18 04:38:22;;;;;;;20.60;16.73;;;;;;;4.21;100.00;102239.28;5116115;27;20028;-35
2023/11/18 04:40:48;;;;;;;20.63;17.30;;;;;;;4.21;100.00;102237.44;5116723;28;20030;-35
2023/11/18 04:43:13;;;;;;;21.43;17.63;;;;;;;4.19;100.00;102236.72;5116630;28;20467;-35
2023/11/18 04:45:42;;;;;;;19.23;17.23;;;;;;;4.19;100.00;102227.84;5116878;28;20076;-36
2023/11/18 04:48:07;;;;;;;19.48;17.13;;;;;;;4.20;100.00;102218.81;5116737;28;20026;-35
2023/11/18 04:50:33;;;;;;;21.17;16.88;;;;;;;4.19;100.00;102218.00;5116185;28;20395;-35
2023/11/18 04:52:58;;;;;;;23.53;17.93;;;;;;;4.21;100.00;102224.03;5116374;28;20032;-35
2023/11/18 04:55:25;;;;;;;20.77;17.95;;;;;;;4.12;100.00;102212.44;5116303;28;20057;-35
2023/11/18 04:57:51;;;;;;;20.23;16.98;;;;;;;4.24;100.00;102221.03;5115689;28;20122;-35
2023/11/18 05:00:17;;;;;;;20.60;17.95;;;;;;;4.24;100.00;102217.53;5116615;28;20116;-35
2023/11/18 05:02:44;;;;;;;22.00;17.50;;;;;;;4.24;100.00;102210.31;5115912;28;20023;-35
2023/11/18 05:05:11;;;;;;;19.73;16.35;;;;;;;4.26;100.00;102207.50;5115921;28;20032;-35
2023/11/18 05:07:36;;;;;;;26.98;18.40;;;;;;;4.17;100.00;102195.91;5115846;28;20024;-35
2023/11/18 05:10:03;;;;;;;21.77;17.90;;;;;;;4.25;100.00;102206.69;5116155;28;20034;-35
2023/11/18 05:12:29;;;;;;;18.88;15.80;;;;;;;4.18;100.00;102186.84;5116598;28;20098;-35
2023/11/18 05:14:55;;;;;;;;;;;;;;;4.35;100.00;102201.22;5116044;28;20023;-35
2023/11/18 05:17:21;;;;;;;21.30;16.60;;;;;;;4.26;100.00;102191.44;5115667;28;19965;-35
2023/11/18 05:19:46;;;;;;;21.63;17.08;;;;;;;4.33;100.00;102193.31;5115343;28;20032;-35
2023/11/18 05:22:12;;;;;;;19.73;16.37;;;;;;;4.28;100.00;102178.72;5114900;28;20031;-35
2023/11/18 05:24:38;;;;;;;21.00;16.63;;;;;;;4.32;100.00;102183.63;5115178;28;20028;-35
2023/11/18 05:27:03;;;;;;;19.77;16.37;;;;;;;4.36;100.00;102193.03;5116068;28;20031;-35
2023/11/18 05:29:29;;;;;;;21.60;15.95;;;;;;;4.38;100.00;102182.16;5115378;28;20270;-35
2023/11/18 05:31:54;;;;;;;21.98;16.67;;;;;;;4.39;100.00;102187.38;5115432;28;20515;-35
2023/11/18 05:34:20;;;;;;;20.98;16.30;;;;;;;4.38;100.00;102192.84;5115274;28;20543;-35
2023/11/18 05:36:54;;;;;;;20.33;15.88;;;;;;;4.40;100.00;102180.16;5115228;28;20028;-35
2023/11/18 05:39:20;;;;;;;21.48;15.25;;;;;;;4.39;100.00;102187.38;5115765;28;20031;-35
2023/11/18 05:41:49;;;;;;;;;;;;;;;4.46;100.00;102192.09;5115638;28;20023;-35
2023/11/18 05:44:19;;;;;;;20.63;15.60;;;;;;;4.42;100.00;102182.69;5115348;28;20317;-35
2023/11/18 05:46:46;;;;;;;18.20;14.50;;;;;;;4.42;100.00;102171.97;5115058;28;20541;-35
2023/11/18 05:49:13;;;;;;;21.77;16.30;;;;;;;4.43;100.00;102152.22;5115522;28;20372;-35
2023/11/18 05:51:43;;;;;;;18.92;15.63;;;;;;;4.42;100.00;102162.09;5115270;28;20024;-35
2023/11/18 05:54:08;;;;;;;19.83;15.15;;;;;;;4.41;100.00;102162.25;5115695;28;20110;-35
2023/11/18 05:56:34;;;;;;;17.38;14.73;;;;;;;4.42;100.00;102161.25;5114988;28;20180;-35
2023/11/18 05:59:02;;;;;;;20.83;15.23;;;;;;;4.43;100.00;102161.06;5115160;28;20032;-35
2023/11/18 06:01:29;;;;;;;15.35;13.27;;;;;;;4.44;100.00;102164.59;5115046;28;20132;-35
2023/11/18 06:03:56;;;;;;;19.17;14.20;;;;;;;4.44;100.00;102157.44;5114944;28;20438;-35
2023/11/18 06:06:22;;;;;;;17.90;14.60;;;;;;;4.46;100.00;102155.41;5114196;28;20031;-35
2023/11/18 06:08:48;;;;;;;19.75;14.90;;;;;;;4.38;100.00;102134.78;5114634;28;20447;-35
2023/11/18 06:11:15;;;;;;;17.48;13.68;;;;;;;4.42;100.00;102137.16;5114433;28;20111;-35
2023/11/18 06:13:48;;;;;;;21.08;14.10;;;;;;;4.47;100.00;102130.31;5114557;28;20028;-35
2023/11/18 06:16:24;;;;;;;18.35;13.73;;;;;;;4.41;100.00;102122.06;5114184;28;20024;-35
2023/11/18 06:18:52;;;;;;;18.90;14.30;;;;;;;4.48;100.00;102137.34;5114537;28;20027;-35
2023/11/18 06:21:19;;;;;;;16.95;12.70;;;;;;;4.51;100.00;102149.59;5115346;28;20084;-35
2023/11/18 06:23:47;;;;;;;19.33;13.65;;;;;;;4.48;100.00;102160.59;5114363;28;20088;-35
2023/11/18 06:26:14;;;;;;;16.05;13.45;;;;;;;4.53;100.00;102166.31;5114396;28;20494;-35
2023/11/18 06:28:40;;;;;;;14.13;12.15;;;;;;;4.51;100.00;102152.25;5113338;28;20126;-35
2023/11/18 06:31:08;;;;;;;15.55;11.95;;;;;;;4.48;100.00;102142.69;5114319;28;20032;-35
2023/11/18 06:33:37;;;;;;;14.73;11.75;;;;;;;4.56;100.00;102141.91;5113937;28;20114;-35
2023/11/18 06:36:04;;;;;;;16.42;12.43;;;;;;;4.51;100.00;102125.47;5114161;28;20024;-35
2023/11/18 06:38:30;;;;;;;16.88;12.60;;;;;;;4.50;100.00;102127.31;5114086;28;20023;-35
2023/11/18 06:40:56;;;;;;;14.68;11.82;;;;;;;4.59;100.00;102133.56;5114474;28;20481;-35
2023/11/18 06:43:21;;;;;;;14.38;10.95;;;;;;;4.59;100.00;102145.13;5114139;28;20024;-35
2023/11/18 06:45:48;;;;;;;15.90;11.90;;;;;;;4.61;100.00;102142.28;5113943;28;20098;-35
2023/11/18 06:48:14;;;;;;;15.43;12.18;;;;;;;4.50;100.00;102118.44;5114032;28;20038;-35
2023/11/18 06:50:44;;;;;;;13.27;11.27;;;;;;;4.62;100.00;102133.22;5114391;28;20028;-35
2023/11/18 06:53:11;;;;;;;14.95;11.55;;;;;;;4.64;100.00;102123.19;5113990;28;20032;-35
2023/11/18 06:55:36;;;;;;;15.73;11.50;;;;;;;4.62;100.00;102122.50;5114277;28;20032;-35
2023/11/18 06:58:02;;;;;;;15.93;11.85;;;;;;;4.62;100.00;102115.31;5114476;28;20359;-35
2023/11/18 07:00:28;;;;;;;12.50;10.30;;;;;;;4.68;100.00;102121.84;5114304;28;20057;-35
2023/11/18 07:02:54;;;;;;;13.27;11.07;;;;;;;4.67;100.00;102125.53;5113894;28;20103;-35
2023/11/18 07:05:20;;;;;;;13.70;10.40;;;;;;;4.68;100.00;102127.22;5114175;28;20444;-35
2023/11/18 07:07:46;;;;;;;16.35;10.77;;;;;;;4.62;100.00;102117.16;5113844;28;20126;-35
2023/11/18 07:10:13;;;;;;;13.35;11.00;;;;;;;4.69;100.00;102128.09;5113817;28;20024;-35
2023/11/18 07:12:39;;;;;;;14.15;9.98;;;;;;;4.71;100.00;102128.75;5114586;28;20028;-35
2023/11/18 07:15:05;;;;;;;17.70;11.23;;;;;;;4.63;100.00;102111.63;5113613;28;20031;-35
2023/11/18 07:17:30;;;;;;;;;;;;;;;4.76;100.00;102124.56;5114282;28;20027;-35
2023/11/18 07:19:55;;;;;;;12.88;9.43;;;;;;;4.75;100.00;102120.22;5118541;28;19918;-35
2023/11/18 07:22:21;;;;;;;11.13;8.70;;;;;;;4.74;100.00;102113.19;5118452;28;20120;-35
2023/11/18 07:24:46;;;;;;;12.27;9.00;;;;;;;4.76;100.00;102113.03;5117556;28;20257;-35
2023/11/18 07:27:13;;;;;;;11.05;8.85;;;;;;;4.71;100.00;102105.47;5117452;28;20024;-35
2023/11/18 07:29:38;;;;;;;;;;;;;;;4.81;100.00;102118.72;5118511;28;20038;-35
2023/11/18 07:32:05;;;;;;;11.88;8.93;;;;;;;4.80;100.00;102131.28;5117756;28;20286;-35
2023/11/18 07:34:32;;;;;;;11.45;8.50;;;;;;;4.82;100.00;102129.28;5117831;28;20028;-35
2023/11/18 07:36:58;;;;;;;11.15;8.95;;;;;;;4.72;100.00;102111.66;5117523;28;20028;-35
2023/11/18 07:39:35;;;;;;;10.93;8.15;;;;;;;4.70;100.00;102102.97;5117532;28;20119;-35
2023/11/18 07:42:01;;;;;;;12.90;9.68;;;;;;;4.77;100.00;102126.25;5117527;28;20035;-35
2023/11/18 07:44:26;;;;;;;13.83;9.83;;;;;;;4.85;100.00;102133.50;5117520;28;20023;-35
2023/11/18 07:46:51;;;;;;;10.37;8.90;;;;;;;4.84;100.00;102127.31;5118060;28;20040;-39
2023/11/18 07:49:17;;;;;;;9.97;8.17;;;;;;;4.89;100.00;102141.06;5117367;28;20028;-35
2023/11/18 07:51:43;;;;;;;11.80;8.50;;;;;;;4.89;100.00;102138.38;5117658;27;20024;-35
2023/11/18 07:54:09;;;;;;;10.68;8.13;;;;;;;4.91;100.00;102146.25;5117229;27;20027;-35
2023/11/18 07:56:36;;;;;;;12.00;9.13;;;;;;;4.91;100.00;102138.19;5117480;28;20088;-42
2023/11/18 07:59:03;;;;;;;10.65;8.27;;;;;;;4.96;100.00;102145.75;5119697;27;20023;-35
2023/11/18 08:01:28;;;;;;;11.27;9.10;;;;;;;4.97;100.00;102147.44;5137587;27;20395;-35
2023/11/18 08:03:54;;;;;;;19.03;9.13;;;;;;;5.00;100.00;102145.28;5137476;27;20023;-35
2023/11/18 08:06:20;;;;;;;10.88;8.45;;;;;;;5.01;100.00;102143.44;5137710;27;20023;-35
2023/11/18 08:08:47;;;;;;;;;;;;;;;5.06;100.00;102141.94;5138693;27;20375;-35
2023/11/18 08:11:13;;;;;;;7.28;6.50;;;;;;;5.07;100.00;102148.13;5137407;27;19907;-35
2023/11/18 08:13:39;;;;;;;9.82;7.15;;;;;;;4.99;100.00;102134.72;5137050;27;20026;-35
2023/11/18 08:16:08;;;;;;;9.48;6.75;;;;;;;5.01;100.00;102121.97;5135053;27;20062;-35
2023/11/18 08:18:35;;;;;;;9.40;6.45;;;;;;;5.10;100.00;102127.19;5137235;27;20071;-35
2023/11/18 08:21:01;;;;;;;7.75;5.57;;;;;;;5.12;100.00;102119.84;5137272;27;20072;-35
2023/11/18 08:23:31;;;;;;;11.55;6.65;;;;;;;5.12;100.00;102113.63;5137614;27;20027;-35
2023/11/18 08:25:57;;;;;;;10.00;6.30;;;;;;;5.08;100.00;102106.94;5137646;27;20027;-35
2023/11/18 08:28:22;;;;;;;11.35;7.50;;;;;;;5.18;100.00;102126.41;5137108;27;20050;-35
2023/11/18 08:30:48;;;;;;;11.83;6.67;;;;;;;5.16;100.00;102115.81;5136956;27;20072;-35
2023/11/18 08:33:14;;;;;;;;;;;;;;;5.27;100.00;102125.41;5137553;27;20276;-35
2023/11/18 08:35:42;;;;;;;9.02;6.05;;;;;;;5.26;100.00;102115.66;5136826;27;19971;-35
2023/11/18 08:38:07;;;;;;;7.93;5.32;;;;;;;5.29;100.00;102115.34;5136665;27;20118;-35
2023/11/18 08:40:32;;;;;;;7.67;5.63;;;;;;;5.25;100.00;102095.22;5137346;27;20062;-35
2023/11/18 08:42:58;;;;;;;8.20;5.73;;;;;;;5.15;100.00;102063.19;5136585;27;20352;-35
2023/11/18 08:45:29;;;;;;;10.80;5.73;;;;;;;5.36;100.00;102089.53;5136688;27;20023;-35
2023/11/18 08:47:58;;;;;;;8.00;5.65;;;;;;;5.40;100.00;102090.88;5136398;27;20851;-35
2023/11/18 08:50:25;;;;;;;9.57;6.60;;;;;;;5.33;100.00;102068.41;5137169;27;20080;-35
2023/11/18 08:52:57;;;;;;;10.13;7.85;;;;;;;5.43;100.00;102084.34;5137126;27;20394;-35
2023/11/18 08:55:38;;;;;;;12.20;7.85;;;;;;;5.36;100.00;102056.50;5136538;27;20077;-35
2023/11/18 08:58:15;;;;;;;10.05;7.60;;;;;;;5.46;100.00;102067.06;5137185;27;20455;-36
2023/11/18 09:03:34;;;;;;;11.82;6.00;;;;;;;5.51;100.00;102051.31;5136574;27;20439;-35
2023/11/18 09:06:04;;;;;;;9.90;4.88;;;;;;;5.55;100.00;102047.28;5136144;27;20494;-35
2023/11/18 09:08:42;;;;;;;7.55;5.07;;;;;;;5.57;100.00;102054.16;5136415;27;20079;-35
2023/11/18 09:11:10;;;;;;;8.70;4.28;;;;;;;5.62;100.00;102056.34;5137131;27;20466;-35
2023/11/18 09:13:37;;;;;;;8.93;4.20;;;;;;;5.66;100.00;102053.16;5136603;27;20023;-36
2023/11/18 09:16:09;;;;;;;7.57;4.35;;;;;;;5.67;100.00;102043.25;5136465;27;20413;-35
2023/11/18 09:18:36;;;;;;;8.45;4.70;;;;;;;5.71;100.00;102047.28;5135912;27;20019;-35
2023/11/18 09:21:04;;;;;;;7.78;4.20;;;;;;;5.66;100.00;102026.31;5136437;27;20034;-36
2023/11/18 09:23:31;;;;;;;6.75;4.25;;;;;;;5.72;100.00;102030.16;5135772;27;20494;-35
2023/11/18 09:25:57;;;;;;;8.15;4.38;;;;;;;5.72;100.00;102022.13;5136899;27;20423;-35
2023/11/18 09:28:24;;;;;;;8.80;3.88;;;;;;;5.74;100.00;102024.63;5136278;27;20114;-36
2023/11/18 09:30:53;;;;;;;7.82;4.68;;;;;;;5.74;100.00;102014.72;5136529;27;20045;-36
2023/11/18 09:33:34;;;;;;;6.63;4.25;;;;;;;5.73;100.00;102005.00;5135880;27;20020;-36
2023/11/18 09:36:04;;;;;;;6.80;4.60;;;;;;;5.72;100.00;101987.22;5135568;27;20098;-36
2023/11/18 09:38:31;;;;;;;6.10;3.83;;;;;;;5.76;100.00;101993.94;5136071;27;20015;-36
2023/11/18 09:41:01;;;;;;;13.50;3.85;;;;;;;5.67;100.00;101977.00;5135746;27;20027;-37
2023/11/18 09:43:26;;;;;;;8.38;3.97;;;;;;;5.64;100.00;101963.09;5135708;27;20031;-36
2023/11/18 09:45:56;;;;;;;9.68;4.63;;;;;;;5.77;100.00;101984.88;5135676;27;20107;-36
2023/11/18 09:48:25;;;;;;;8.00;4.25;;;;;;;5.76;100.00;101977.84;5135547;27;20030;-35
2023/11/18 09:50:52;;;;;;;7.78;4.25;;;;;;;5.77;100.00;101974.13;5135273;27;20024;-35
2023/11/18 09:53:25;;;;;;;8.43;4.10;;;;;;;5.83;100.00;101994.06;5135842;27;20023;-35
2023/11/18 09:55:59;;;;;;;7.57;4.35;;;;;;;5.87;100.00;101979.31;5136003;27;20059;-35
2023/11/18 09:58:41;;;;;;;6.43;4.32;;;;;;;5.75;100.00;101962.72;5135746;27;20443;-36
2023/11/18 10:01:06;;;;;;;7.38;4.22;;;;;;;5.90;100.00;101981.63;5135421;27;20027;-35
2023/11/18 10:03:35;;;;;;;9.82;4.65;;;;;;;5.94;100.00;101970.41;5135047;27;20034;-35
2023/11/18 10:06:06;;;;;;;14.07;5.45;;;;;;;5.96;100.00;101969.41;5135615;27;20023;-35
2023/11/18 10:08:31;;;;;;;7.50;4.43;;;;;;;5.97;100.00;101961.19;5135561;27;20023;-35
2023/11/18 10:11:05;;;;;;;7.43;4.40;;;;;;;5.97;100.00;101957.66;5135030;27;20403;-35
2023/11/18 10:13:34;;;;;;;9.30;4.68;;;;;;;5.97;100.00;101946.91;5135250;27;20461;-35
2023/11/18 10:15:59;;;;;;;11.02;4.55;;;;;;;5.93;100.00;101930.31;5135012;27;20516;-36
2023/11/18 10:18:28;;;;;;;8.07;4.25;;;;;;;6.04;100.00;101934.47;5134815;27;20027;-35
2023/11/18 10:20:53;;;;;;;9.25;4.70;;;;;;;6.06;100.00;101935.13;5135017;27;20054;-35
2023/11/18 10:23:27;;;;;;;8.85;4.35;;;;;;;6.07;100.00;101937.63;5135005;27;20462;-35
2023/11/18 10:25:56;;;;;;;8.57;4.70;;;;;;;6.03;100.00;101922.88;5135537;27;20054;-35
2023/11/18 10:28:36;;;;;;;7.53;4.63;;;;;;;6.14;100.00;101930.53;5134942;27;20391;-35
2023/11/18 10:31:15;;;;;;;7.10;4.30;;;;;;;6.18;100.00;101939.09;5135411;27;20067;-36
2023/11/18 10:33:43;;;;;;;7.43;4.38;;;;;;;6.12;100.00;101927.22;5134429;27;20420;-35
2023/11/18 10:36:31;;;;;;;7.97;4.13;;;;;;;6.17;100.00;101910.56;5135553;27;20038;-36
2023/11/18 10:39:00;;;;;;;8.15;4.40;;;;;;;6.22;100.00;101905.50;5135300;27;20106;-36
2023/11/18 10:41:25;;;;;;;9.40;4.05;;;;;;;6.26;100.00;101909.53;5134303;27;20371;-35
2023/11/18 10:44:06;;;;;;;8.25;4.50;;;;;;;6.30;100.00;101902.78;5134688;27;20023;-37
2023/11/18 10:46:32;;;;;;;10.48;4.55;;;;;;;6.32;100.00;101907.97;5135484;27;20031;-36
2023/11/18 10:48:58;;;;;;;9.65;4.72;;;;;;;6.31;100.00;101891.00;5134640;27;20062;-36
2023/11/18 10:51:26;;;;;;;10.15;4.53;;;;;;;6.35;100.00;101897.72;5134429;27;20031;-36
2023/11/18 10:53:53;;;;;;;7.97;4.03;;;;;;;6.39;100.00;101893.66;5134223;27;20027;-35
2023/11/18 10:56:28;;;;;;;8.73;4.30;;;;;;;6.42;100.00;101898.66;5134728;27;20114;-36
2023/11/18 10:58:55;;;;;;;7.50;4.03;;;;;;;6.31;100.00;101872.22;5134493;27;20057;-36
2023/11/18 11:01:31;;;;;;;7.13;4.38;;;;;;;6.42;100.00;101893.28;5135325;27;20037;-36
2023/11/18 11:03:58;;;;;;;9.33;4.20;;;;;;;6.48;100.00;101905.16;5135319;27;20075;-36
2023/11/18 11:06:23;;;;;;;;;;;;;;;6.53;100.00;101904.63;5134870;27;20438;-36
2023/11/18 11:08:50;;;;;;;12.30;4.45;;;;;;;6.53;100.00;101896.56;5134409;28;19952;-36
2023/11/18 11:11:22;;;;;;;10.93;4.40;;;;;;;6.53;100.00;101869.69;5134399;27;20122;-36
2023/11/18 11:14:03;;;;;;;8.00;4.22;;;;;;;6.56;100.00;101863.97;5134715;27;20030;-36
2023/11/18 11:16:43;;;;;;;7.03;3.90;;;;;;;6.55;100.00;101860.47;5134267;27;20027;-35
2023/11/18 11:19:22;;;;;;;7.53;3.92;;;;;;;6.58;100.00;101859.25;5134558;27;20076;-36
2023/11/18 11:22:21;;;;;;;8.02;4.10;;;;;;;6.56;100.00;101859.44;5134558;27;20066;-36